Pool, West Virginia
Current Conditions -  °F | °C
As of 4:51 AM on Sunday 26 Oct 2014 (Local Time) from KBKW Reporting Station
Scattered Clouds Scattered Clouds  
Wind Chill: 56°   Ceiling: Unl
Heat Index: 56°   Visibility: 10mi
Dew Point: 48°   Wind: 13mph
Humidity: 75%   Direction: 310°NW
Pressure: 29.91"   Gusts: 21mph
Location:  38.16°N, 80.86°W
Report Text: KBKW 260851Z AUTO 31011G18KT 10SM SCT023 13/09 A2991 RMK AO2 SLP112 T01330089 55001 TSNO
Loading
Personal Weather Stations






























Interactive Weather Map
Tropical Storm Tracking
New forecast layout! Learn more

10-Day Weather Forecast

Advertisements
Track Severe Weather on mobile